sensor_id;sensor_type;location;lat;lon;timestamp;temperature;humidity
790;DHT22;378;48.844;9.156;2023-02-28T00:01:05;-2.10;99.90
790;DHT22;378;48.844;9.156;2023-02-28T00:03:34;-2.00;99.90
790;DHT22;378;48.844;9.156;2023-02-28T00:06:02;-2.10;99.90
790;DHT22;378;48.844;9.156;2023-02-28T00:08:29;-2.00;99.90
790;DHT22;378;48.844;9.156;2023-02-28T00:10:55;-2.00;99.90
790;DHT22;378;48.844;9.156;2023-02-28T00:13:22;-2.10;99.90
790;DHT22;378;48.844;9.156;2023-02-28T00:15:59;-2.10;99.90
790;DHT22;378;48.844;9.156;2023-02-28T00:18:26;-2.10;99.90
790;DHT22;378;48.844;9.156;2023-02-28T00:20:54;-2.00;99.90
790;DHT22;378;48.844;9.156;2023-02-28T00:23:21;-2.10;99.90
790;DHT22;378;48.844;9.156;2023-02-28T00:25:48;-2.10;99.90
790;DHT22;378;48.844;9.156;2023-02-28T00:28:15;-2.00;99.90
790;DHT22;378;48.844;9.156;2023-02-28T00:30:42;-2.10;99.90
790;DHT22;378;48.844;9.156;2023-02-28T00:33:09;-2.10;99.90
790;DHT22;378;48.844;9.156;2023-02-28T00:35:36;-2.10;99.90
790;DHT22;378;48.844;9.156;2023-02-28T00:38:04;-2.20;99.90
790;DHT22;378;48.844;9.156;2023-02-28T00:40:31;-2.10;99.90
790;DHT22;378;48.844;9.156;2023-02-28T00:42:58;-2.20;99.90
790;DHT22;378;48.844;9.156;2023-02-28T00:45:25;-2.10;99.90
790;DHT22;378;48.844;9.156;2023-02-28T00:47:52;-2.10;99.90
790;DHT22;378;48.844;9.156;2023-02-28T00:50:19;-2.20;99.90
790;DHT22;378;48.844;9.156;2023-02-28T00:52:47;-2.20;99.90
790;DHT22;378;48.844;9.156;2023-02-28T00:55:15;-2.20;99.90
790;DHT22;378;48.844;9.156;2023-02-28T00:57:42;-2.20;99.90
790;DHT22;378;48.844;9.156;2023-02-28T01:00:10;-2.20;99.90
790;DHT22;378;48.844;9.156;2023-02-28T01:02:37;-2.20;99.90
790;DHT22;378;48.844;9.156;2023-02-28T01:05:04;-2.20;99.90
790;DHT22;378;48.844;9.156;2023-02-28T01:07:31;-2.20;99.90
790;DHT22;378;48.844;9.156;2023-02-28T01:09:58;-2.20;99.90
790;DHT22;378;48.844;9.156;2023-02-28T01:12:26;-2.20;99.90
790;DHT22;378;48.844;9.156;2023-02-28T01:14:53;-2.20;99.90
790;DHT22;378;48.844;9.156;2023-02-28T01:17:20;-2.30;99.90
790;DHT22;378;48.844;9.156;2023-02-28T01:19:47;-2.30;99.90
790;DHT22;378;48.844;9.156;2023-02-28T01:22:13;-2.30;99.90
790;DHT22;378;48.844;9.156;2023-02-28T01:24:40;-2.30;99.90
790;DHT22;378;48.844;9.156;2023-02-28T01:27:07;-2.30;99.90
790;DHT22;378;48.844;9.156;2023-02-28T01:29:35;-2.30;99.90
790;DHT22;378;48.844;9.156;2023-02-28T01:32:02;-2.30;99.90
790;DHT22;378;48.844;9.156;2023-02-28T01:34:29;-2.30;99.90
790;DHT22;378;48.844;9.156;2023-02-28T01:36:56;-2.30;99.90
790;DHT22;378;48.844;9.156;2023-02-28T01:39:24;-2.40;99.90
790;DHT22;378;48.844;9.156;2023-02-28T01:41:51;-2.30;99.90
790;DHT22;378;48.844;9.156;2023-02-28T01:47:40;-2.30;99.90
790;DHT22;378;48.844;9.156;2023-02-28T01:50:13;-2.40;99.90
790;DHT22;378;48.844;9.156;2023-02-28T01:52:42;-2.40;99.90
790;DHT22;378;48.844;9.156;2023-02-28T01:55:11;-2.40;99.90
790;DHT22;378;48.844;9.156;2023-02-28T01:57:41;-2.40;99.90
790;DHT22;378;48.844;9.156;2023-02-28T02:00:11;-2.40;99.90
790;DHT22;378;48.844;9.156;2023-02-28T02:02:42;-2.40;99.90
790;DHT22;378;48.844;9.156;2023-02-28T02:05:12;-2.40;99.90
790;DHT22;378;48.844;9.156;2023-02-28T02:07:42;-2.40;99.90
790;DHT22;378;48.844;9.156;2023-02-28T02:10:12;-2.50;99.90
790;DHT22;378;48.844;9.156;2023-02-28T02:13:10;-2.40;99.90
790;DHT22;378;48.844;9.156;2023-02-28T02:15:42;-2.50;99.90
790;DHT22;378;48.844;9.156;2023-02-28T02:18:19;-2.50;99.90
790;DHT22;378;48.844;9.156;2023-02-28T02:21:15;-2.40;99.90
790;DHT22;378;48.844;9.156;2023-02-28T02:24:13;-2.40;99.90
790;DHT22;378;48.844;9.156;2023-02-28T02:26:58;-2.40;99.90
790;DHT22;378;48.844;9.156;2023-02-28T02:32:47;-2.50;99.90
790;DHT22;378;48.844;9.156;2023-02-28T02:35:25;-2.40;99.90
790;DHT22;378;48.844;9.156;2023-02-28T02:37:59;-2.40;99.90
790;DHT22;378;48.844;9.156;2023-02-28T02:40:31;-2.30;99.90
790;DHT22;378;48.844;9.156;2023-02-28T02:43:02;-2.30;99.90
790;DHT22;378;48.844;9.156;2023-02-28T02:45:33;-2.30;99.90
790;DHT22;378;48.844;9.156;2023-02-28T02:48:04;-2.20;99.90
790;DHT22;378;48.844;9.156;2023-02-28T02:50:36;-2.20;99.90
790;DHT22;378;48.844;9.156;2023-02-28T02:53:06;-2.20;99.90
790;DHT22;378;48.844;9.156;2023-02-28T02:55:37;-2.30;99.90
790;DHT22;378;48.844;9.156;2023-02-28T02:58:09;-2.20;99.90
790;DHT22;378;48.844;9.156;2023-02-28T03:00:39;-2.10;99.90
790;DHT22;378;48.844;9.156;2023-02-28T03:03:08;-2.20;99.90
790;DHT22;378;48.844;9.156;2023-02-28T03:05:42;-2.20;99.90
790;DHT22;378;48.844;9.156;2023-02-28T03:08:12;-2.10;99.90
790;DHT22;378;48.844;9.156;2023-02-28T03:10:40;-2.10;99.90
790;DHT22;378;48.844;9.156;2023-02-28T03:13:39;-2.10;99.90
790;DHT22;378;48.844;9.156;2023-02-28T03:16:21;-2.10;99.90
790;DHT22;378;48.844;9.156;2023-02-28T03:18:54;-2.10;99.90
790;DHT22;378;48.844;9.156;2023-02-28T03:21:29;-2.10;99.90
790;DHT22;378;48.844;9.156;2023-02-28T03:24:04;-2.00;99.90
790;DHT22;378;48.844;9.156;2023-02-28T03:26:34;-2.00;99.90
790;DHT22;378;48.844;9.156;2023-02-28T03:29:06;-2.00;99.90
790;DHT22;378;48.844;9.156;2023-02-28T03:31:40;-2.00;99.90
790;DHT22;378;48.844;9.156;2023-02-28T03:34:10;-2.00;99.90
790;DHT22;378;48.844;9.156;2023-02-28T03:36:45;-2.00;99.90
790;DHT22;378;48.844;9.156;2023-02-28T03:39:16;-2.00;99.90
790;DHT22;378;48.844;9.156;2023-02-28T03:41:46;-1.90;99.90
790;DHT22;378;48.844;9.156;2023-02-28T03:44:18;-1.90;99.90
790;DHT22;378;48.844;9.156;2023-02-28T03:46:49;-1.90;99.90
790;DHT22;378;48.844;9.156;2023-02-28T03:49:22;-1.90;99.90
790;DHT22;378;48.844;9.156;2023-02-28T03:51:51;-1.90;99.90
790;DHT22;378;48.844;9.156;2023-02-28T03:54:21;-1.90;99.90
790;DHT22;378;48.844;9.156;2023-02-28T03:56:51;-1.90;99.90
790;DHT22;378;48.844;9.156;2023-02-28T03:59:23;-1.80;99.90
790;DHT22;378;48.844;9.156;2023-02-28T04:01:52;-1.90;99.90
790;DHT22;378;48.844;9.156;2023-02-28T04:04:21;-1.80;99.90
790;DHT22;378;48.844;9.156;2023-02-28T04:06:52;-1.90;99.90
790;DHT22;378;48.844;9.156;2023-02-28T04:09:26;-1.90;99.90
790;DHT22;378;48.844;9.156;2023-02-28T04:11:53;-1.90;99.90
790;DHT22;378;48.844;9.156;2023-02-28T04:14:21;-1.90;99.90
790;DHT22;378;48.844;9.156;2023-02-28T04:16:49;-1.80;99.90
790;DHT22;378;48.844;9.156;2023-02-28T04:19:17;-1.80;99.90
790;DHT22;378;48.844;9.156;2023-02-28T04:21:46;-1.80;99.90
790;DHT22;378;48.844;9.156;2023-02-28T04:24:16;-1.80;99.90
790;DHT22;378;48.844;9.156;2023-02-28T04:26:45;-1.70;99.90
790;DHT22;378;48.844;9.156;2023-02-28T04:29:13;-1.70;99.90
790;DHT22;378;48.844;9.156;2023-02-28T04:31:41;-1.70;99.90
790;DHT22;378;48.844;9.156;2023-02-28T04:34:07;-1.70;99.90
790;DHT22;378;48.844;9.156;2023-02-28T04:36:34;-1.70;99.90
790;DHT22;378;48.844;9.156;2023-02-28T04:39:01;-1.70;99.90
790;DHT22;378;48.844;9.156;2023-02-28T04:41:30;-1.60;99.90
790;DHT22;378;48.844;9.156;2023-02-28T04:43:57;-1.70;99.90
790;DHT22;378;48.844;9.156;2023-02-28T04:46:24;-1.70;99.90
790;DHT22;378;48.844;9.156;2023-02-28T04:48:51;-1.70;99.90
790;DHT22;378;48.844;9.156;2023-02-28T04:51:19;-1.70;99.90
790;DHT22;378;48.844;9.156;2023-02-28T04:53:47;-1.70;99.90
790;DHT22;378;48.844;9.156;2023-02-28T04:56:16;-1.60;99.90
790;DHT22;378;48.844;9.156;2023-02-28T04:58:44;-1.60;99.90
790;DHT22;378;48.844;9.156;2023-02-28T05:01:18;-1.70;99.90
790;DHT22;378;48.844;9.156;2023-02-28T05:03:46;-1.70;99.90
790;DHT22;378;48.844;9.156;2023-02-28T05:06:13;-1.60;99.90
790;DHT22;378;48.844;9.156;2023-02-28T05:08:40;-1.60;99.90
790;DHT22;378;48.844;9.156;2023-02-28T05:11:17;-1.60;99.90
790;DHT22;378;48.844;9.156;2023-02-28T05:13:46;-1.60;99.90
790;DHT22;378;48.844;9.156;2023-02-28T05:16:13;-1.60;99.90
790;DHT22;378;48.844;9.156;2023-02-28T05:18:40;-1.60;99.90
790;DHT22;378;48.844;9.156;2023-02-28T05:21:24;-1.60;99.90
790;DHT22;378;48.844;9.156;2023-02-28T05:23:51;-1.60;99.90
790;DHT22;378;48.844;9.156;2023-02-28T05:26:18;-1.60;99.90
790;DHT22;378;48.844;9.156;2023-02-28T05:28:47;-1.60;99.90
790;DHT22;378;48.844;9.156;2023-02-28T05:31:13;-1.60;99.90
790;DHT22;378;48.844;9.156;2023-02-28T05:33:41;-1.60;99.90
790;DHT22;378;48.844;9.156;2023-02-28T05:36:08;-1.60;99.90
790;DHT22;378;48.844;9.156;2023-02-28T05:38:35;-1.60;99.90
790;DHT22;378;48.844;9.156;2023-02-28T05:41:06;-1.60;99.90
790;DHT22;378;48.844;9.156;2023-02-28T05:43:33;-1.60;99.90
790;DHT22;378;48.844;9.156;2023-02-28T05:46:04;-1.50;99.90
790;DHT22;378;48.844;9.156;2023-02-28T05:48:31;-1.60;99.90
790;DHT22;378;48.844;9.156;2023-02-28T05:50:58;-1.50;99.90
790;DHT22;378;48.844;9.156;2023-02-28T05:53:25;-1.40;99.90
790;DHT22;378;48.844;9.156;2023-02-28T05:55:52;-1.50;99.90
790;DHT22;378;48.844;9.156;2023-02-28T05:58:19;-1.50;99.90
790;DHT22;378;48.844;9.156;2023-02-28T06:00:46;-1.50;99.90
790;DHT22;378;48.844;9.156;2023-02-28T06:03:14;-1.50;99.90
790;DHT22;378;48.844;9.156;2023-02-28T06:05:41;-1.50;99.90
790;DHT22;378;48.844;9.156;2023-02-28T06:08:08;-1.40;99.90
790;DHT22;378;48.844;9.156;2023-02-28T06:10:35;-1.40;99.90
790;DHT22;378;48.844;9.156;2023-02-28T06:13:02;-1.50;99.90
790;DHT22;378;48.844;9.156;2023-02-28T06:15:29;-1.50;99.90
790;DHT22;378;48.844;9.156;2023-02-28T06:17:57;-1.50;99.90
790;DHT22;378;48.844;9.156;2023-02-28T06:20:26;-1.40;99.90
790;DHT22;378;48.844;9.156;2023-02-28T06:22:55;-1.40;99.90
790;DHT22;378;48.844;9.156;2023-02-28T06:25:24;-1.40;99.90
790;DHT22;378;48.844;9.156;2023-02-28T06:27:51;-1.40;99.90
790;DHT22;378;48.844;9.156;2023-02-28T06:30:18;-1.40;99.90
790;DHT22;378;48.844;9.156;2023-02-28T06:32:49;-1.40;99.90
790;DHT22;378;48.844;9.156;2023-02-28T06:35:16;-1.40;99.90
790;DHT22;378;48.844;9.156;2023-02-28T06:37:44;-1.40;99.90
790;DHT22;378;48.844;9.156;2023-02-28T06:40:15;-1.40;99.90
790;DHT22;378;48.844;9.156;2023-02-28T06:42:43;-1.30;99.90
790;DHT22;378;48.844;9.156;2023-02-28T06:45:14;-1.30;99.90
790;DHT22;378;48.844;9.156;2023-02-28T06:47:41;-1.30;99.90
790;DHT22;378;48.844;9.156;2023-02-28T06:50:10;-1.20;99.90
790;DHT22;378;48.844;9.156;2023-02-28T06:52:38;-1.30;99.90
790;DHT22;378;48.844;9.156;2023-02-28T06:55:08;-1.20;99.90
790;DHT22;378;48.844;9.156;2023-02-28T06:57:35;-1.20;99.90
790;DHT22;378;48.844;9.156;2023-02-28T07:00:06;-1.20;99.90
790;DHT22;378;48.844;9.156;2023-02-28T07:02:34;-1.10;99.90
790;DHT22;378;48.844;9.156;2023-02-28T07:05:01;-1.10;99.90
790;DHT22;378;48.844;9.156;2023-02-28T07:07:28;-1.10;99.90
790;DHT22;378;48.844;9.156;2023-02-28T07:09:54;-1.10;99.90
790;DHT22;378;48.844;9.156;2023-02-28T07:12:23;-1.10;99.90
790;DHT22;378;48.844;9.156;2023-02-28T07:17:18;-1.00;99.90
790;DHT22;378;48.844;9.156;2023-02-28T07:19:44;-1.00;99.90
790;DHT22;378;48.844;9.156;2023-02-28T07:22:11;-1.10;99.90
790;DHT22;378;48.844;9.156;2023-02-28T07:24:38;-1.10;99.90
790;DHT22;378;48.844;9.156;2023-02-28T07:27:05;-1.10;99.90
790;DHT22;378;48.844;9.156;2023-02-28T07:29:33;-1.10;99.90
790;DHT22;378;48.844;9.156;2023-02-28T07:32:00;-1.10;99.90
790;DHT22;378;48.844;9.156;2023-02-28T07:34:27;-1.00;99.90
790;DHT22;378;48.844;9.156;2023-02-28T07:36:54;-1.00;99.90
790;DHT22;378;48.844;9.156;2023-02-28T07:39:21;-1.00;99.90
790;DHT22;378;48.844;9.156;2023-02-28T07:41:49;-1.00;99.90
790;DHT22;378;48.844;9.156;2023-02-28T07:44:29;-0.90;99.90
790;DHT22;378;48.844;9.156;2023-02-28T07:46:57;-0.90;99.90
790;DHT22;378;48.844;9.156;2023-02-28T07:49:24;-0.80;99.90
790;DHT22;378;48.844;9.156;2023-02-28T07:51:51;-0.90;99.90
790;DHT22;378;48.844;9.156;2023-02-28T07:54:18;-0.90;99.90
790;DHT22;378;48.844;9.156;2023-02-28T07:56:45;-0.80;99.90
790;DHT22;378;48.844;9.156;2023-02-28T07:59:11;-0.90;99.90
790;DHT22;378;48.844;9.156;2023-02-28T08:01:38;-0.90;99.90
790;DHT22;378;48.844;9.156;2023-02-28T08:04:06;-0.80;99.90
790;DHT22;378;48.844;9.156;2023-02-28T08:06:33;-0.90;99.90
790;DHT22;378;48.844;9.156;2023-02-28T08:09:00;-0.90;99.90
790;DHT22;378;48.844;9.156;2023-02-28T08:11:27;-0.80;99.90
790;DHT22;378;48.844;9.156;2023-02-28T08:13:54;-0.80;99.90
790;DHT22;378;48.844;9.156;2023-02-28T08:16:21;-0.70;99.90
790;DHT22;378;48.844;9.156;2023-02-28T08:18:49;-0.70;99.90
790;DHT22;378;48.844;9.156;2023-02-28T08:21:17;-0.70;99.90
790;DHT22;378;48.844;9.156;2023-02-28T08:23:46;-0.60;99.90
790;DHT22;378;48.844;9.156;2023-02-28T08:26:13;-0.50;99.90
790;DHT22;378;48.844;9.156;2023-02-28T08:28:40;-0.50;99.90
790;DHT22;378;48.844;9.156;2023-02-28T08:31:08;-0.60;99.90
790;DHT22;378;48.844;9.156;2023-02-28T08:33:36;-0.60;99.90
790;DHT22;378;48.844;9.156;2023-02-28T08:36:05;-0.60;99.90
790;DHT22;378;48.844;9.156;2023-02-28T08:38:34;-0.70;99.90
790;DHT22;378;48.844;9.156;2023-02-28T08:41:03;-0.50;99.90
790;DHT22;378;48.844;9.156;2023-02-28T08:43:31;-0.60;99.90
790;DHT22;378;48.844;9.156;2023-02-28T08:45:58;-0.50;99.90
790;DHT22;378;48.844;9.156;2023-02-28T08:48:26;-0.40;99.90
790;DHT22;378;48.844;9.156;2023-02-28T08:50:57;-0.30;99.90
790;DHT22;378;48.844;9.156;2023-02-28T08:53:24;-0.20;99.90
790;DHT22;378;48.844;9.156;2023-02-28T08:56:00;-0.10;99.90
790;DHT22;378;48.844;9.156;2023-02-28T08:58:27;-0.20;99.90
790;DHT22;378;48.844;9.156;2023-02-28T09:00:54;-0.20;99.90
790;DHT22;378;48.844;9.156;2023-02-28T09:03:21;-0.10;99.90
790;DHT22;378;48.844;9.156;2023-02-28T09:05:53;-0.10;99.90
790;DHT22;378;48.844;9.156;2023-02-28T09:08:20;0.10;99.90
790;DHT22;378;48.844;9.156;2023-02-28T09:10:47;0.20;99.90
790;DHT22;378;48.844;9.156;2023-02-28T09:13:15;0.30;99.90
790;DHT22;378;48.844;9.156;2023-02-28T09:15:42;0.50;99.90
790;DHT22;378;48.844;9.156;2023-02-28T09:18:08;0.60;99.90
790;DHT22;378;48.844;9.156;2023-02-28T09:20:37;0.60;99.90
790;DHT22;378;48.844;9.156;2023-02-28T09:23:05;0.60;99.90
790;DHT22;378;48.844;9.156;2023-02-28T09:25:32;0.60;99.90
790;DHT22;378;48.844;9.156;2023-02-28T09:27:59;0.70;99.90
790;DHT22;378;48.844;9.156;2023-02-28T09:30:27;0.60;99.90
790;DHT22;378;48.844;9.156;2023-02-28T09:32:54;0.60;99.90
790;DHT22;378;48.844;9.156;2023-02-28T09:35:22;0.60;99.90
790;DHT22;378;48.844;9.156;2023-02-28T09:37:50;0.70;99.90
790;DHT22;378;48.844;9.156;2023-02-28T09:40:19;0.80;99.90
790;DHT22;378;48.844;9.156;2023-02-28T09:42:48;0.90;99.90
790;DHT22;378;48.844;9.156;2023-02-28T09:45:22;0.90;99.90
790;DHT22;378;48.844;9.156;2023-02-28T09:47:53;0.90;99.90
790;DHT22;378;48.844;9.156;2023-02-28T09:50:28;0.90;99.90
790;DHT22;378;48.844;9.156;2023-02-28T09:52:59;1.00;99.90
790;DHT22;378;48.844;9.156;2023-02-28T09:55:30;1.00;99.90
790;DHT22;378;48.844;9.156;2023-02-28T09:57:58;1.00;99.90
790;DHT22;378;48.844;9.156;2023-02-28T10:00:30;1.10;99.90
790;DHT22;378;48.844;9.156;2023-02-28T10:03:23;1.10;99.90
790;DHT22;378;48.844;9.156;2023-02-28T10:05:54;1.10;99.90
790;DHT22;378;48.844;9.156;2023-02-28T10:08:26;1.30;99.90
790;DHT22;378;48.844;9.156;2023-02-28T10:10:56;1.30;99.90
790;DHT22;378;48.844;9.156;2023-02-28T10:13:27;1.40;99.90
790;DHT22;378;48.844;9.156;2023-02-28T10:16:00;1.30;99.90
790;DHT22;378;48.844;9.156;2023-02-28T10:18:37;1.20;99.90
790;DHT22;378;48.844;9.156;2023-02-28T10:21:05;1.30;99.90
790;DHT22;378;48.844;9.156;2023-02-28T10:23:35;1.50;99.90
790;DHT22;378;48.844;9.156;2023-02-28T10:26:10;1.50;99.90
790;DHT22;378;48.844;9.156;2023-02-28T10:28:38;1.70;99.90
790;DHT22;378;48.844;9.156;2023-02-28T10:31:10;1.70;99.90
790;DHT22;378;48.844;9.156;2023-02-28T10:33:39;1.80;99.90
790;DHT22;378;48.844;9.156;2023-02-28T10:36:08;1.70;99.90
790;DHT22;378;48.844;9.156;2023-02-28T10:38:39;1.70;99.90
790;DHT22;378;48.844;9.156;2023-02-28T10:41:07;1.90;99.90
790;DHT22;378;48.844;9.156;2023-02-28T10:43:35;2.00;99.90
790;DHT22;378;48.844;9.156;2023-02-28T10:46:05;2.30;99.90
790;DHT22;378;48.844;9.156;2023-02-28T10:48:41;2.30;99.90
790;DHT22;378;48.844;9.156;2023-02-28T10:51:11;2.50;99.90
790;DHT22;378;48.844;9.156;2023-02-28T10:53:45;2.40;99.90
790;DHT22;378;48.844;9.156;2023-02-28T10:56:17;2.50;99.90
790;DHT22;378;48.844;9.156;2023-02-28T10:58:52;2.60;99.90
790;DHT22;378;48.844;9.156;2023-02-28T11:01:21;2.60;99.90
790;DHT22;378;48.844;9.156;2023-02-28T11:03:51;2.90;99.90
790;DHT22;378;48.844;9.156;2023-02-28T11:06:19;3.10;99.90
790;DHT22;378;48.844;9.156;2023-02-28T11:08:50;3.30;99.90
790;DHT22;378;48.844;9.156;2023-02-28T11:11:17;3.40;99.90
790;DHT22;378;48.844;9.156;2023-02-28T11:13:46;3.40;99.90
790;DHT22;378;48.844;9.156;2023-02-28T11:16:15;3.60;99.90
790;DHT22;378;48.844;9.156;2023-02-28T11:18:47;3.80;99.90
790;DHT22;378;48.844;9.156;2023-02-28T11:21:21;3.70;99.90
790;DHT22;378;48.844;9.156;2023-02-28T11:23:50;3.40;99.90
790;DHT22;378;48.844;9.156;2023-02-28T11:26:36;3.20;99.90
790;DHT22;378;48.844;9.156;2023-02-28T11:29:11;3.10;99.90
790;DHT22;378;48.844;9.156;2023-02-28T11:31:37;3.20;99.90
790;DHT22;378;48.844;9.156;2023-02-28T11:34:23;3.30;99.90
790;DHT22;378;48.844;9.156;2023-02-28T11:36:54;3.50;99.90
790;DHT22;378;48.844;9.156;2023-02-28T11:39:22;3.60;99.90
790;DHT22;378;48.844;9.156;2023-02-28T11:42:09;3.70;99.90
790;DHT22;378;48.844;9.156;2023-02-28T11:44:52;3.80;99.90
790;DHT22;378;48.844;9.156;2023-02-28T11:47:32;3.80;99.90
790;DHT22;378;48.844;9.156;2023-02-28T11:50:15;3.70;99.90
790;DHT22;378;48.844;9.156;2023-02-28T11:52:49;3.80;99.90
790;DHT22;378;48.844;9.156;2023-02-28T11:55:21;3.70;99.90
790;DHT22;378;48.844;9.156;2023-02-28T11:58:05;3.70;99.90
790;DHT22;378;48.844;9.156;2023-02-28T12:00:44;4.00;99.90
790;DHT22;378;48.844;9.156;2023-02-28T12:03:22;4.30;99.90
790;DHT22;378;48.844;9.156;2023-02-28T12:06:00;4.70;99.90
790;DHT22;378;48.844;9.156;2023-02-28T12:08:44;4.60;99.90
790;DHT22;378;48.844;9.156;2023-02-28T12:11:20;4.50;99.90
790;DHT22;378;48.844;9.156;2023-02-28T12:14:03;4.70;99.90
790;DHT22;378;48.844;9.156;2023-02-28T12:16:44;5.00;99.90
790;DHT22;378;48.844;9.156;2023-02-28T12:19:20;5.00;99.90
790;DHT22;378;48.844;9.156;2023-02-28T12:24:54;4.50;99.90
790;DHT22;378;48.844;9.156;2023-02-28T12:27:28;4.50;99.90
790;DHT22;378;48.844;9.156;2023-02-28T12:29:59;4.50;99.90
790;DHT22;378;48.844;9.156;2023-02-28T12:32:30;4.50;99.90
790;DHT22;378;48.844;9.156;2023-02-28T12:35:02;4.70;99.90
790;DHT22;378;48.844;9.156;2023-02-28T12:37:33;4.60;99.90
790;DHT22;378;48.844;9.156;2023-02-28T12:40:09;4.70;99.90
790;DHT22;378;48.844;9.156;2023-02-28T12:42:41;4.90;99.90
790;DHT22;378;48.844;9.156;2023-02-28T12:45:14;4.80;99.90
790;DHT22;378;48.844;9.156;2023-02-28T12:47:45;4.70;99.90
790;DHT22;378;48.844;9.156;2023-02-28T12:50:14;4.90;99.90
790;DHT22;378;48.844;9.156;2023-02-28T12:52:48;5.00;99.90
790;DHT22;378;48.844;9.156;2023-02-28T12:55:25;5.20;99.90
790;DHT22;378;48.844;9.156;2023-02-28T12:58:01;5.50;99.90
790;DHT22;378;48.844;9.156;2023-02-28T13:00:34;5.80;99.90
790;DHT22;378;48.844;9.156;2023-02-28T13:03:22;6.10;99.90
790;DHT22;378;48.844;9.156;2023-02-28T13:06:08;6.10;99.90
790;DHT22;378;48.844;9.156;2023-02-28T13:09:00;6.40;99.90
790;DHT22;378;48.844;9.156;2023-02-28T13:11:31;6.30;99.90
790;DHT22;378;48.844;9.156;2023-02-28T13:14:01;6.70;99.90
790;DHT22;378;48.844;9.156;2023-02-28T13:16:28;7.00;99.90
790;DHT22;378;48.844;9.156;2023-02-28T13:19:17;7.40;99.90
790;DHT22;378;48.844;9.156;2023-02-28T13:21:47;7.80;99.90
790;DHT22;378;48.844;9.156;2023-02-28T13:24:43;7.40;99.90
790;DHT22;378;48.844;9.156;2023-02-28T13:27:24;7.40;99.90
790;DHT22;378;48.844;9.156;2023-02-28T13:29:57;7.20;99.90
790;DHT22;378;48.844;9.156;2023-02-28T13:32:42;7.60;99.90
790;DHT22;378;48.844;9.156;2023-02-28T13:35:45;7.80;99.90
790;DHT22;378;48.844;9.156;2023-02-28T13:44:08;7.70;99.90
790;DHT22;378;48.844;9.156;2023-02-28T13:46:38;8.40;99.90
790;DHT22;378;48.844;9.156;2023-02-28T13:49:26;8.60;99.90
790;DHT22;378;48.844;9.156;2023-02-28T13:51:55;8.30;99.90
790;DHT22;378;48.844;9.156;2023-02-28T13:54:37;7.40;99.90
790;DHT22;378;48.844;9.156;2023-02-28T13:57:20;6.90;99.90
790;DHT22;378;48.844;9.156;2023-02-28T14:00:02;6.70;99.90
790;DHT22;378;48.844;9.156;2023-02-28T14:03:01;6.60;99.90
790;DHT22;378;48.844;9.156;2023-02-28T14:05:33;6.30;99.90
790;DHT22;378;48.844;9.156;2023-02-28T14:08:05;6.10;99.90
790;DHT22;378;48.844;9.156;2023-02-28T14:10:36;6.20;99.90
790;DHT22;378;48.844;9.156;2023-02-28T14:13:13;6.10;99.90
790;DHT22;378;48.844;9.156;2023-02-28T14:15:47;6.00;99.90
790;DHT22;378;48.844;9.156;2023-02-28T14:18:22;6.00;99.90
790;DHT22;378;48.844;9.156;2023-02-28T14:20:53;6.00;99.90
790;DHT22;378;48.844;9.156;2023-02-28T14:23:32;6.10;99.90
790;DHT22;378;48.844;9.156;2023-02-28T14:26:05;6.00;99.90
790;DHT22;378;48.844;9.156;2023-02-28T14:28:47;5.90;99.90
790;DHT22;378;48.844;9.156;2023-02-28T14:31:23;5.80;99.90
790;DHT22;378;48.844;9.156;2023-02-28T14:34:13;5.70;99.90
790;DHT22;378;48.844;9.156;2023-02-28T14:36:44;5.80;99.90
790;DHT22;378;48.844;9.156;2023-02-28T14:39:13;5.80;99.90
790;DHT22;378;48.844;9.156;2023-02-28T14:41:43;5.80;99.90
790;DHT22;378;48.844;9.156;2023-02-28T14:44:16;5.90;99.90
790;DHT22;378;48.844;9.156;2023-02-28T14:46:46;5.90;99.90
790;DHT22;378;48.844;9.156;2023-02-28T14:49:18;5.80;99.90
790;DHT22;378;48.844;9.156;2023-02-28T14:51:47;5.70;99.90
790;DHT22;378;48.844;9.156;2023-02-28T14:54:15;5.60;99.90
790;DHT22;378;48.844;9.156;2023-02-28T14:56:43;5.70;99.90
790;DHT22;378;48.844;9.156;2023-02-28T14:59:35;5.90;99.90
790;DHT22;378;48.844;9.156;2023-02-28T15:02:33;6.00;99.90
790;DHT22;378;48.844;9.156;2023-02-28T15:05:22;6.00;99.90
790;DHT22;378;48.844;9.156;2023-02-28T15:07:48;6.00;99.90
790;DHT22;378;48.844;9.156;2023-02-28T15:10:20;5.80;99.90
790;DHT22;378;48.844;9.156;2023-02-28T15:12:52;5.80;99.90
790;DHT22;378;48.844;9.156;2023-02-28T15:15:20;6.00;99.90
790;DHT22;378;48.844;9.156;2023-02-28T15:17:53;5.90;99.90
790;DHT22;378;48.844;9.156;2023-02-28T15:20:22;5.90;99.90
790;DHT22;378;48.844;9.156;2023-02-28T15:22:51;5.90;99.90
790;DHT22;378;48.844;9.156;2023-02-28T15:25:20;5.90;99.90
790;DHT22;378;48.844;9.156;2023-02-28T15:27:49;5.70;99.90
790;DHT22;378;48.844;9.156;2023-02-28T15:30:18;5.60;99.90
790;DHT22;378;48.844;9.156;2023-02-28T15:33:05;5.60;99.90
790;DHT22;378;48.844;9.156;2023-02-28T15:35:34;5.60;99.90
790;DHT22;378;48.844;9.156;2023-02-28T15:38:03;5.50;99.90
790;DHT22;378;48.844;9.156;2023-02-28T15:40:37;5.40;99.90
790;DHT22;378;48.844;9.156;2023-02-28T15:43:06;5.30;99.90
790;DHT22;378;48.844;9.156;2023-02-28T15:45:37;5.20;99.90
790;DHT22;378;48.844;9.156;2023-02-28T15:48:15;5.10;99.90
790;DHT22;378;48.844;9.156;2023-02-28T15:50:42;5.10;99.90
790;DHT22;378;48.844;9.156;2023-02-28T15:53:13;5.10;99.90
790;DHT22;378;48.844;9.156;2023-02-28T15:55:40;5.00;99.90
790;DHT22;378;48.844;9.156;2023-02-28T15:58:11;5.00;99.90
790;DHT22;378;48.844;9.156;2023-02-28T16:00:39;4.90;99.90
790;DHT22;378;48.844;9.156;2023-02-28T16:03:26;4.90;99.90
790;DHT22;378;48.844;9.156;2023-02-28T16:06:19;4.80;99.90
790;DHT22;378;48.844;9.156;2023-02-28T16:08:48;4.80;99.90
790;DHT22;378;48.844;9.156;2023-02-28T16:11:17;4.80;99.90
790;DHT22;378;48.844;9.156;2023-02-28T16:13:43;4.80;99.90
790;DHT22;378;48.844;9.156;2023-02-28T16:16:15;4.80;99.90
790;DHT22;378;48.844;9.156;2023-02-28T16:18:43;4.70;99.90
790;DHT22;378;48.844;9.156;2023-02-28T16:21:10;4.60;99.90
790;DHT22;378;48.844;9.156;2023-02-28T16:23:37;4.50;99.90
790;DHT22;378;48.844;9.156;2023-02-28T16:26:05;4.50;99.90
790;DHT22;378;48.844;9.156;2023-02-28T16:28:35;4.40;99.90
790;DHT22;378;48.844;9.156;2023-02-28T16:31:05;4.30;99.90
790;DHT22;378;48.844;9.156;2023-02-28T16:33:33;4.20;99.90
790;DHT22;378;48.844;9.156;2023-02-28T16:36:02;4.20;99.90
790;DHT22;378;48.844;9.156;2023-02-28T16:38:29;4.10;99.90
790;DHT22;378;48.844;9.156;2023-02-28T16:40:58;4.00;99.90
790;DHT22;378;48.844;9.156;2023-02-28T16:43:26;3.90;99.90
790;DHT22;378;48.844;9.156;2023-02-28T16:45:55;3.90;99.90
790;DHT22;378;48.844;9.156;2023-02-28T16:48:24;3.90;99.90
790;DHT22;378;48.844;9.156;2023-02-28T16:50:51;3.80;99.90
790;DHT22;378;48.844;9.156;2023-02-28T16:53:19;3.70;99.90
790;DHT22;378;48.844;9.156;2023-02-28T16:55:46;3.70;99.90
790;DHT22;378;48.844;9.156;2023-02-28T16:58:14;3.60;99.90
790;DHT22;378;48.844;9.156;2023-02-28T17:00:43;3.60;99.90
790;DHT22;378;48.844;9.156;2023-02-28T17:03:21;3.50;99.90
790;DHT22;378;48.844;9.156;2023-02-28T17:05:48;3.40;99.90
790;DHT22;378;48.844;9.156;2023-02-28T17:08:15;3.30;99.90
790;DHT22;378;48.844;9.156;2023-02-28T17:10:44;3.20;99.90
790;DHT22;378;48.844;9.156;2023-02-28T17:13:11;3.10;99.90
790;DHT22;378;48.844;9.156;2023-02-28T17:15:38;3.00;99.90
790;DHT22;378;48.844;9.156;2023-02-28T17:18:06;2.90;99.90
790;DHT22;378;48.844;9.156;2023-02-28T17:20:35;2.80;99.90
790;DHT22;378;48.844;9.156;2023-02-28T17:23:02;2.80;99.90
790;DHT22;378;48.844;9.156;2023-02-28T17:25:29;2.70;99.90